KNYC

Central Park Airport

New York City, New York, USA
METAR KNYC 161651Z AUTO 00000KT 10SM FEW021 BKN030 OVC070 01/M03 A3048 RMK AO2 SLP315 T00111033 PWINO FZRANO $
Observed Flight Rules
Jan-16 @ 16:51 UTC (26 minutes ago) Marginal Visual Flight Rules
Wind Visibility Clouds
Calm 10 miles
  • Few at 2,100' AGL
  • Broken at 3,000' AGL
  • Overcast at 7,000' AGL
Temperatures Readings
Current 1°C / 34°F
Dewpoint -3°C / 27°F
Humidity 75%
Altimeter 30.48" Hg
Pressure 1031.5 hPa
Elevation 11
METAR KNYC 161651Z AUTO 00000KT 10SM FEW021 BKN030 OVC070 01/M03 A3048 RMK AO2 SLP315 T00111033 PWINO FZRANO $
Observed Flight Rules
Jan-16 @ 16:51 UTC
(26 minutes ago)
MVFR
Wind Visibility
Calm 10 miles
Clouds
  • Few at 2,100' AGL
  • Broken at 3,000' AGL
  • Overcast at 7,000' AGL
Temperature Dewpoint
1°C / 34°F -3°C / 27°F
Humidity Altimeter Pressure
75% 30.48" Hg 1031.5 hPa